sensor_id;sensor_type;location;lat;lon;timestamp;P1;durP1;ratioP1;P2;durP2;ratioP2
25752;SDS011;13600;50.816;4.416;2024-02-26T00:02:22;5.90;;;1.80;;
25752;SDS011;13600;50.816;4.416;2024-02-26T00:04:48;5.03;;;1.70;;
25752;SDS011;13600;50.816;4.416;2024-02-26T00:07:15;3.13;;;1.45;;
25752;SDS011;13600;50.816;4.416;2024-02-26T00:09:41;3.80;;;1.50;;
25752;SDS011;13600;50.816;4.416;2024-02-26T00:12:07;4.65;;;1.48;;
25752;SDS011;13600;50.816;4.416;2024-02-26T00:14:33;3.20;;;1.40;;
25752;SDS011;13600;50.816;4.416;2024-02-26T00:16:59;4.18;;;1.67;;
25752;SDS011;13600;50.816;4.416;2024-02-26T00:19:25;5.78;;;1.60;;
25752;SDS011;13600;50.816;4.416;2024-02-26T00:21:50;3.53;;;1.65;;
25752;SDS011;13600;50.816;4.416;2024-02-26T00:24:18;4.13;;;1.40;;
25752;SDS011;13600;50.816;4.416;2024-02-26T00:26:44;4.55;;;1.60;;
25752;SDS011;13600;50.816;4.416;2024-02-26T00:29:10;5.47;;;1.73;;
25752;SDS011;13600;50.816;4.416;2024-02-26T00:31:36;2.60;;;1.60;;
25752;SDS011;13600;50.816;4.416;2024-02-26T00:34:03;5.50;;;1.80;;
25752;SDS011;13600;50.816;4.416;2024-02-26T00:36:29;4.88;;;1.75;;
25752;SDS011;13600;50.816;4.416;2024-02-26T00:38:54;4.00;;;1.88;;
25752;SDS011;13600;50.816;4.416;2024-02-26T00:41:20;4.85;;;1.83;;
25752;SDS011;13600;50.816;4.416;2024-02-26T00:43:46;3.30;;;1.50;;
25752;SDS011;13600;50.816;4.416;2024-02-26T00:46:12;4.65;;;1.60;;
25752;SDS011;13600;50.816;4.416;2024-02-26T00:48:38;5.18;;;1.75;;
25752;SDS011;13600;50.816;4.416;2024-02-26T00:51:04;2.78;;;1.42;;
25752;SDS011;13600;50.816;4.416;2024-02-26T00:53:34;4.00;;;1.73;;
25752;SDS011;13600;50.816;4.416;2024-02-26T00:56:00;5.28;;;1.60;;
25752;SDS011;13600;50.816;4.416;2024-02-26T00:58:26;3.40;;;1.60;;
25752;SDS011;13600;50.816;4.416;2024-02-26T01:00:52;2.20;;;1.42;;
25752;SDS011;13600;50.816;4.416;2024-02-26T01:03:18;2.58;;;1.40;;
25752;SDS011;13600;50.816;4.416;2024-02-26T01:05:44;3.72;;;1.40;;
25752;SDS011;13600;50.816;4.416;2024-02-26T01:08:10;4.55;;;1.40;;
25752;SDS011;13600;50.816;4.416;2024-02-26T01:10:35;4.32;;;1.40;;
25752;SDS011;13600;50.816;4.416;2024-02-26T01:13:01;3.05;;;1.50;;
25752;SDS011;13600;50.816;4.416;2024-02-26T01:15:27;3.15;;;1.60;;
25752;SDS011;13600;50.816;4.416;2024-02-26T01:17:53;4.88;;;1.58;;
25752;SDS011;13600;50.816;4.416;2024-02-26T01:20:19;4.35;;;1.65;;
25752;SDS011;13600;50.816;4.416;2024-02-26T01:22:45;4.10;;;2.17;;
25752;SDS011;13600;50.816;4.416;2024-02-26T01:25:10;4.38;;;1.73;;
25752;SDS011;13600;50.816;4.416;2024-02-26T01:27:37;3.08;;;1.90;;
25752;SDS011;13600;50.816;4.416;2024-02-26T01:30:03;5.60;;;1.90;;
25752;SDS011;13600;50.816;4.416;2024-02-26T01:32:30;4.35;;;2.05;;
25752;SDS011;13600;50.816;4.416;2024-02-26T01:34:56;3.78;;;1.70;;
25752;SDS011;13600;50.816;4.416;2024-02-26T01:37:22;4.82;;;1.80;;
25752;SDS011;13600;50.816;4.416;2024-02-26T01:39:47;3.13;;;1.65;;
25752;SDS011;13600;50.816;4.416;2024-02-26T01:42:13;5.40;;;1.67;;
25752;SDS011;13600;50.816;4.416;2024-02-26T01:44:39;4.18;;;1.70;;
25752;SDS011;13600;50.816;4.416;2024-02-26T01:47:09;3.33;;;1.70;;
25752;SDS011;13600;50.816;4.416;2024-02-26T01:49:37;3.78;;;1.80;;
25752;SDS011;13600;50.816;4.416;2024-02-26T01:52:04;2.58;;;1.70;;
25752;SDS011;13600;50.816;4.416;2024-02-26T01:54:31;4.43;;;1.55;;
25752;SDS011;13600;50.816;4.416;2024-02-26T01:57:00;2.63;;;1.50;;
25752;SDS011;13600;50.816;4.416;2024-02-26T01:59:27;5.50;;;1.50;;
25752;SDS011;13600;50.816;4.416;2024-02-26T02:01:54;4.25;;;1.67;;
25752;SDS011;13600;50.816;4.416;2024-02-26T02:04:22;4.90;;;1.50;;
25752;SDS011;13600;50.816;4.416;2024-02-26T02:06:49;3.70;;;1.40;;
25752;SDS011;13600;50.816;4.416;2024-02-26T02:09:17;5.47;;;1.30;;
25752;SDS011;13600;50.816;4.416;2024-02-26T02:11:43;3.17;;;1.30;;
25752;SDS011;13600;50.816;4.416;2024-02-26T02:14:09;2.67;;;1.25;;
25752;SDS011;13600;50.816;4.416;2024-02-26T02:16:35;3.58;;;1.40;;
25752;SDS011;13600;50.816;4.416;2024-02-26T02:19:01;3.92;;;1.40;;
25752;SDS011;13600;50.816;4.416;2024-02-26T02:21:27;3.15;;;1.50;;
25752;SDS011;13600;50.816;4.416;2024-02-26T02:23:52;4.68;;;1.40;;
25752;SDS011;13600;50.816;4.416;2024-02-26T02:26:18;2.33;;;1.35;;
25752;SDS011;13600;50.816;4.416;2024-02-26T02:28:44;2.13;;;1.17;;
25752;SDS011;13600;50.816;4.416;2024-02-26T02:31:12;4.72;;;1.45;;
25752;SDS011;13600;50.816;4.416;2024-02-26T02:33:38;5.47;;;1.52;;
25752;SDS011;13600;50.816;4.416;2024-02-26T02:36:04;4.88;;;1.50;;
25752;SDS011;13600;50.816;4.416;2024-02-26T02:38:34;1.42;;;1.10;;
25752;SDS011;13600;50.816;4.416;2024-02-26T02:40:59;2.97;;;1.45;;
25752;SDS011;13600;50.816;4.416;2024-02-26T02:43:25;3.55;;;1.30;;
25752;SDS011;13600;50.816;4.416;2024-02-26T02:45:51;4.68;;;1.48;;
25752;SDS011;13600;50.816;4.416;2024-02-26T02:48:16;3.13;;;1.23;;
25752;SDS011;13600;50.816;4.416;2024-02-26T02:50:42;1.63;;;1.20;;
25752;SDS011;13600;50.816;4.416;2024-02-26T02:53:07;5.50;;;1.38;;
25752;SDS011;13600;50.816;4.416;2024-02-26T02:55:35;2.53;;;1.50;;
25752;SDS011;13600;50.816;4.416;2024-02-26T02:58:01;2.15;;;1.17;;
25752;SDS011;13600;50.816;4.416;2024-02-26T03:00:26;2.85;;;1.30;;
25752;SDS011;13600;50.816;4.416;2024-02-26T03:02:52;3.20;;;2.00;;
25752;SDS011;13600;50.816;4.416;2024-02-26T03:05:18;5.63;;;1.40;;
25752;SDS011;13600;50.816;4.416;2024-02-26T03:07:44;3.70;;;1.40;;
25752;SDS011;13600;50.816;4.416;2024-02-26T03:10:09;4.60;;;1.60;;
25752;SDS011;13600;50.816;4.416;2024-02-26T03:12:35;3.35;;;1.80;;
25752;SDS011;13600;50.816;4.416;2024-02-26T03:15:01;3.88;;;1.38;;
25752;SDS011;13600;50.816;4.416;2024-02-26T03:17:30;4.10;;;1.40;;
25752;SDS011;13600;50.816;4.416;2024-02-26T03:19:55;3.20;;;1.42;;
25752;SDS011;13600;50.816;4.416;2024-02-26T03:22:21;3.25;;;1.55;;
25752;SDS011;13600;50.816;4.416;2024-02-26T03:24:47;3.55;;;1.70;;
25752;SDS011;13600;50.816;4.416;2024-02-26T03:27:13;4.88;;;1.92;;
25752;SDS011;13600;50.816;4.416;2024-02-26T03:29:39;3.30;;;1.65;;
25752;SDS011;13600;50.816;4.416;2024-02-26T03:32:05;5.80;;;2.05;;
25752;SDS011;13600;50.816;4.416;2024-02-26T03:34:32;2.78;;;1.60;;
25752;SDS011;13600;50.816;4.416;2024-02-26T03:37:04;3.00;;;1.80;;
25752;SDS011;13600;50.816;4.416;2024-02-26T03:39:29;6.07;;;1.85;;
25752;SDS011;13600;50.816;4.416;2024-02-26T03:41:55;4.43;;;1.65;;
25752;SDS011;13600;50.816;4.416;2024-02-26T03:44:21;4.03;;;1.70;;
25752;SDS011;13600;50.816;4.416;2024-02-26T03:46:46;3.20;;;1.67;;
25752;SDS011;13600;50.816;4.416;2024-02-26T03:49:12;3.63;;;1.90;;
25752;SDS011;13600;50.816;4.416;2024-02-26T03:51:38;4.05;;;1.70;;
25752;SDS011;13600;50.816;4.416;2024-02-26T03:54:04;3.20;;;1.65;;
25752;SDS011;13600;50.816;4.416;2024-02-26T03:56:30;2.65;;;1.80;;
25752;SDS011;13600;50.816;4.416;2024-02-26T03:58:55;4.15;;;2.10;;
25752;SDS011;13600;50.816;4.416;2024-02-26T04:01:21;3.75;;;1.80;;
25752;SDS011;13600;50.816;4.416;2024-02-26T04:03:47;3.47;;;2.00;;
25752;SDS011;13600;50.816;4.416;2024-02-26T04:06:13;3.97;;;1.90;;
25752;SDS011;13600;50.816;4.416;2024-02-26T04:08:39;3.28;;;2.22;;
25752;SDS011;13600;50.816;4.416;2024-02-26T04:11:06;4.07;;;2.20;;
25752;SDS011;13600;50.816;4.416;2024-02-26T04:13:35;5.82;;;2.65;;
25752;SDS011;13600;50.816;4.416;2024-02-26T04:16:03;5.95;;;2.63;;
25752;SDS011;13600;50.816;4.416;2024-02-26T04:18:29;4.53;;;2.50;;
25752;SDS011;13600;50.816;4.416;2024-02-26T04:20:55;6.32;;;3.00;;
25752;SDS011;13600;50.816;4.416;2024-02-26T04:23:22;5.32;;;2.97;;
25752;SDS011;13600;50.816;4.416;2024-02-26T04:25:48;7.93;;;2.92;;
25752;SDS011;13600;50.816;4.416;2024-02-26T04:28:13;5.10;;;3.20;;
25752;SDS011;13600;50.816;4.416;2024-02-26T04:30:40;5.05;;;3.20;;
25752;SDS011;13600;50.816;4.416;2024-02-26T04:33:06;4.10;;;2.95;;
25752;SDS011;13600;50.816;4.416;2024-02-26T04:35:32;5.72;;;3.50;;
25752;SDS011;13600;50.816;4.416;2024-02-26T04:37:57;6.15;;;3.90;;
25752;SDS011;13600;50.816;4.416;2024-02-26T04:40:23;5.28;;;3.55;;
25752;SDS011;13600;50.816;4.416;2024-02-26T04:42:49;9.60;;;4.47;;
25752;SDS011;13600;50.816;4.416;2024-02-26T04:45:15;6.10;;;3.42;;
25752;SDS011;13600;50.816;4.416;2024-02-26T04:47:40;8.65;;;4.40;;
25752;SDS011;13600;50.816;4.416;2024-02-26T04:50:07;6.50;;;3.72;;
25752;SDS011;13600;50.816;4.416;2024-02-26T04:52:33;6.68;;;4.45;;
25752;SDS011;13600;50.816;4.416;2024-02-26T04:54:58;7.45;;;4.43;;
25752;SDS011;13600;50.816;4.416;2024-02-26T04:57:25;6.13;;;4.35;;
25752;SDS011;13600;50.816;4.416;2024-02-26T04:59:51;5.80;;;4.38;;
25752;SDS011;13600;50.816;4.416;2024-02-26T05:02:17;7.05;;;4.68;;
25752;SDS011;13600;50.816;4.416;2024-02-26T05:04:44;6.38;;;4.60;;
25752;SDS011;13600;50.816;4.416;2024-02-26T05:07:09;6.03;;;4.75;;
25752;SDS011;13600;50.816;4.416;2024-02-26T05:09:35;6.65;;;4.93;;
25752;SDS011;13600;50.816;4.416;2024-02-26T05:12:01;6.45;;;4.90;;
25752;SDS011;13600;50.816;4.416;2024-02-26T05:14:27;9.43;;;4.93;;
25752;SDS011;13600;50.816;4.416;2024-02-26T05:16:52;9.85;;;5.40;;
25752;SDS011;13600;50.816;4.416;2024-02-26T05:19:18;7.78;;;5.32;;
25752;SDS011;13600;50.816;4.416;2024-02-26T05:21:44;9.63;;;5.30;;
25752;SDS011;13600;50.816;4.416;2024-02-26T05:24:10;10.23;;;6.30;;
25752;SDS011;13600;50.816;4.416;2024-02-26T05:26:35;9.25;;;5.95;;
25752;SDS011;13600;50.816;4.416;2024-02-26T05:29:01;10.35;;;6.30;;
25752;SDS011;13600;50.816;4.416;2024-02-26T05:31:27;8.32;;;6.32;;
25752;SDS011;13600;50.816;4.416;2024-02-26T05:33:53;10.32;;;6.57;;
25752;SDS011;13600;50.816;4.416;2024-02-26T05:36:22;10.55;;;6.97;;
25752;SDS011;13600;50.816;4.416;2024-02-26T05:38:48;8.32;;;6.85;;
25752;SDS011;13600;50.816;4.416;2024-02-26T05:41:15;10.65;;;6.72;;
25752;SDS011;13600;50.816;4.416;2024-02-26T05:43:41;13.57;;;7.88;;
25752;SDS011;13600;50.816;4.416;2024-02-26T05:46:07;11.18;;;7.97;;
25752;SDS011;13600;50.816;4.416;2024-02-26T05:48:33;11.77;;;8.57;;
25752;SDS011;13600;50.816;4.416;2024-02-26T05:50:59;14.10;;;9.05;;
25752;SDS011;13600;50.816;4.416;2024-02-26T05:53:24;13.07;;;9.23;;
25752;SDS011;13600;50.816;4.416;2024-02-26T05:55:50;12.93;;;9.57;;
25752;SDS011;13600;50.816;4.416;2024-02-26T05:58:16;16.08;;;10.55;;
25752;SDS011;13600;50.816;4.416;2024-02-26T06:00:41;16.33;;;11.25;;
25752;SDS011;13600;50.816;4.416;2024-02-26T06:03:08;17.48;;;11.02;;
25752;SDS011;13600;50.816;4.416;2024-02-26T06:05:34;17.77;;;11.55;;
25752;SDS011;13600;50.816;4.416;2024-02-26T06:08:00;18.58;;;11.55;;
25752;SDS011;13600;50.816;4.416;2024-02-26T06:10:27;18.65;;;12.15;;
25752;SDS011;13600;50.816;4.416;2024-02-26T06:12:52;19.15;;;13.30;;
25752;SDS011;13600;50.816;4.416;2024-02-26T06:15:18;19.48;;;13.05;;
25752;SDS011;13600;50.816;4.416;2024-02-26T06:17:44;16.67;;;13.10;;
25752;SDS011;13600;50.816;4.416;2024-02-26T06:20:10;20.48;;;13.63;;
25752;SDS011;13600;50.816;4.416;2024-02-26T06:22:39;18.27;;;14.10;;
25752;SDS011;13600;50.816;4.416;2024-02-26T06:25:05;18.77;;;13.88;;
25752;SDS011;13600;50.816;4.416;2024-02-26T06:27:32;21.27;;;13.65;;
25752;SDS011;13600;50.816;4.416;2024-02-26T06:29:58;21.98;;;14.10;;
25752;SDS011;13600;50.816;4.416;2024-02-26T06:32:23;21.70;;;14.65;;
25752;SDS011;13600;50.816;4.416;2024-02-26T06:34:49;19.23;;;14.15;;
25752;SDS011;13600;50.816;4.416;2024-02-26T06:37:15;18.70;;;13.95;;
25752;SDS011;13600;50.816;4.416;2024-02-26T06:39:41;19.08;;;14.55;;
25752;SDS011;13600;50.816;4.416;2024-02-26T06:42:07;20.55;;;14.27;;
25752;SDS011;13600;50.816;4.416;2024-02-26T06:44:32;18.08;;;15.00;;
25752;SDS011;13600;50.816;4.416;2024-02-26T06:46:58;20.75;;;14.38;;
25752;SDS011;13600;50.816;4.416;2024-02-26T06:49:24;16.65;;;12.43;;
25752;SDS011;13600;50.816;4.416;2024-02-26T06:51:51;20.88;;;14.20;;
25752;SDS011;13600;50.816;4.416;2024-02-26T06:54:17;22.52;;;14.15;;
25752;SDS011;13600;50.816;4.416;2024-02-26T06:56:42;21.02;;;14.95;;
25752;SDS011;13600;50.816;4.416;2024-02-26T06:59:08;20.92;;;14.63;;
25752;SDS011;13600;50.816;4.416;2024-02-26T07:01:34;17.23;;;13.65;;
25752;SDS011;13600;50.816;4.416;2024-02-26T07:04:00;18.38;;;14.18;;
25752;SDS011;13600;50.816;4.416;2024-02-26T07:06:29;18.77;;;14.40;;
25752;SDS011;13600;50.816;4.416;2024-02-26T07:08:54;18.20;;;14.80;;
25752;SDS011;13600;50.816;4.416;2024-02-26T07:11:20;21.98;;;14.57;;
25752;SDS011;13600;50.816;4.416;2024-02-26T07:13:46;19.80;;;15.63;;
25752;SDS011;13600;50.816;4.416;2024-02-26T07:16:12;19.75;;;13.38;;
25752;SDS011;13600;50.816;4.416;2024-02-26T07:18:38;19.58;;;14.60;;
25752;SDS011;13600;50.816;4.416;2024-02-26T07:21:04;19.60;;;15.35;;
25752;SDS011;13600;50.816;4.416;2024-02-26T07:23:31;19.13;;;14.95;;
25752;SDS011;13600;50.816;4.416;2024-02-26T07:25:57;22.08;;;15.38;;
25752;SDS011;13600;50.816;4.416;2024-02-26T07:28:23;22.60;;;14.95;;
25752;SDS011;13600;50.816;4.416;2024-02-26T07:30:49;20.05;;;15.65;;
25752;SDS011;13600;50.816;4.416;2024-02-26T07:33:15;18.60;;;14.82;;
25752;SDS011;13600;50.816;4.416;2024-02-26T07:35:41;23.70;;;14.27;;
25752;SDS011;13600;50.816;4.416;2024-02-26T07:38:06;16.55;;;13.65;;
25752;SDS011;13600;50.816;4.416;2024-02-26T07:40:32;19.80;;;14.88;;
25752;SDS011;13600;50.816;4.416;2024-02-26T07:42:58;15.40;;;12.02;;
25752;SDS011;13600;50.816;4.416;2024-02-26T07:45:24;21.17;;;15.18;;
25752;SDS011;13600;50.816;4.416;2024-02-26T07:47:49;17.85;;;13.95;;
25752;SDS011;13600;50.816;4.416;2024-02-26T07:50:17;14.25;;;12.05;;
25752;SDS011;13600;50.816;4.416;2024-02-26T07:52:43;18.17;;;13.65;;
25752;SDS011;13600;50.816;4.416;2024-02-26T07:55:10;17.75;;;14.82;;
25752;SDS011;13600;50.816;4.416;2024-02-26T07:57:36;19.67;;;13.63;;
25752;SDS011;13600;50.816;4.416;2024-02-26T08:00:03;19.33;;;13.75;;
25752;SDS011;13600;50.816;4.416;2024-02-26T08:02:32;18.58;;;13.88;;
25752;SDS011;13600;50.816;4.416;2024-02-26T08:04:59;18.00;;;14.02;;
25752;SDS011;13600;50.816;4.416;2024-02-26T08:07:24;17.88;;;13.50;;
25752;SDS011;13600;50.816;4.416;2024-02-26T08:09:50;16.80;;;12.90;;
25752;SDS011;13600;50.816;4.416;2024-02-26T08:12:16;18.88;;;13.90;;
25752;SDS011;13600;50.816;4.416;2024-02-26T08:14:42;22.40;;;14.65;;
25752;SDS011;13600;50.816;4.416;2024-02-26T08:17:08;19.30;;;14.20;;
25752;SDS011;13600;50.816;4.416;2024-02-26T08:19:34;18.30;;;13.60;;
25752;SDS011;13600;50.816;4.416;2024-02-26T08:22:01;16.83;;;12.55;;
25752;SDS011;13600;50.816;4.416;2024-02-26T08:24:29;14.68;;;12.18;;
25752;SDS011;13600;50.816;4.416;2024-02-26T08:26:55;17.55;;;13.00;;
25752;SDS011;13600;50.816;4.416;2024-02-26T08:29:21;15.70;;;13.13;;
25752;SDS011;13600;50.816;4.416;2024-02-26T08:31:47;16.45;;;11.80;;
25752;SDS011;13600;50.816;4.416;2024-02-26T08:34:13;16.08;;;12.80;;
25752;SDS011;13600;50.816;4.416;2024-02-26T08:36:39;16.23;;;13.65;;
25752;SDS011;13600;50.816;4.416;2024-02-26T08:39:04;17.70;;;14.10;;
25752;SDS011;13600;50.816;4.416;2024-02-26T08:41:30;22.02;;;14.50;;
25752;SDS011;13600;50.816;4.416;2024-02-26T08:43:55;17.27;;;13.10;;
25752;SDS011;13600;50.816;4.416;2024-02-26T08:46:23;16.10;;;13.05;;
25752;SDS011;13600;50.816;4.416;2024-02-26T08:48:48;17.00;;;12.95;;
25752;SDS011;13600;50.816;4.416;2024-02-26T08:51:16;17.73;;;13.38;;
25752;SDS011;13600;50.816;4.416;2024-02-26T08:53:42;16.85;;;13.20;;
25752;SDS011;13600;50.816;4.416;2024-02-26T08:56:08;15.55;;;13.20;;
25752;SDS011;13600;50.816;4.416;2024-02-26T08:58:36;16.38;;;12.88;;
25752;SDS011;13600;50.816;4.416;2024-02-26T09:01:02;15.32;;;13.43;;
25752;SDS011;13600;50.816;4.416;2024-02-26T09:03:30;16.75;;;14.00;;
25752;SDS011;13600;50.816;4.416;2024-02-26T09:05:56;16.48;;;13.05;;
25752;SDS011;13600;50.816;4.416;2024-02-26T09:08:22;15.90;;;13.13;;
25752;SDS011;13600;50.816;4.416;2024-02-26T09:10:49;17.73;;;13.85;;
25752;SDS011;13600;50.816;4.416;2024-02-26T09:13:15;16.38;;;13.70;;
25752;SDS011;13600;50.816;4.416;2024-02-26T09:15:40;15.50;;;12.80;;
25752;SDS011;13600;50.816;4.416;2024-02-26T09:18:06;18.08;;;13.38;;
25752;SDS011;13600;50.816;4.416;2024-02-26T09:20:32;17.30;;;13.35;;
25752;SDS011;13600;50.816;4.416;2024-02-26T09:22:58;15.93;;;12.82;;
25752;SDS011;13600;50.816;4.416;2024-02-26T09:25:24;20.88;;;12.73;;
25752;SDS011;13600;50.816;4.416;2024-02-26T09:27:50;16.63;;;12.93;;
25752;SDS011;13600;50.816;4.416;2024-02-26T09:30:16;15.73;;;12.68;;
25752;SDS011;13600;50.816;4.416;2024-02-26T09:32:45;16.02;;;12.90;;
25752;SDS011;13600;50.816;4.416;2024-02-26T09:35:12;16.92;;;13.02;;
25752;SDS011;13600;50.816;4.416;2024-02-26T09:37:38;14.85;;;12.40;;
25752;SDS011;13600;50.816;4.416;2024-02-26T09:40:04;13.93;;;11.55;;
25752;SDS011;13600;50.816;4.416;2024-02-26T09:42:31;17.30;;;12.40;;
25752;SDS011;13600;50.816;4.416;2024-02-26T09:44:59;18.05;;;12.63;;
25752;SDS011;13600;50.816;4.416;2024-02-26T09:47:28;18.33;;;12.07;;
25752;SDS011;13600;50.816;4.416;2024-02-26T09:49:56;16.20;;;11.48;;
25752;SDS011;13600;50.816;4.416;2024-02-26T09:52:23;16.25;;;12.80;;
25752;SDS011;13600;50.816;4.416;2024-02-26T09:54:50;16.85;;;12.60;;
25752;SDS011;13600;50.816;4.416;2024-02-26T09:57:16;15.40;;;12.85;;
25752;SDS011;13600;50.816;4.416;2024-02-26T09:59:43;14.85;;;12.25;;
25752;SDS011;13600;50.816;4.416;2024-02-26T10:02:11;14.88;;;12.25;;
25752;SDS011;13600;50.816;4.416;2024-02-26T10:04:41;14.90;;;12.05;;
25752;SDS011;13600;50.816;4.416;2024-02-26T10:07:12;19.00;;;11.00;;
25752;SDS011;13600;50.816;4.416;2024-02-26T10:09:38;14.25;;;11.52;;
25752;SDS011;13600;50.816;4.416;2024-02-26T10:12:05;13.93;;;10.90;;
25752;SDS011;13600;50.816;4.416;2024-02-26T10:14:32;13.20;;;10.43;;
25752;SDS011;13600;50.816;4.416;2024-02-26T10:16:58;16.38;;;10.50;;
25752;SDS011;13600;50.816;4.416;2024-02-26T10:19:29;24.98;;;10.23;;
25752;SDS011;13600;50.816;4.416;2024-02-26T10:21:58;14.95;;;9.60;;
25752;SDS011;13600;50.816;4.416;2024-02-26T10:24:29;13.45;;;9.52;;
25752;SDS011;13600;50.816;4.416;2024-02-26T10:26:55;14.40;;;9.45;;
25752;SDS011;13600;50.816;4.416;2024-02-26T10:29:23;12.43;;;8.63;;
25752;SDS011;13600;50.816;4.416;2024-02-26T10:31:53;12.55;;;7.95;;
25752;SDS011;13600;50.816;4.416;2024-02-26T10:34:19;13.02;;;9.07;;
25752;SDS011;13600;50.816;4.416;2024-02-26T10:36:45;9.18;;;7.85;;
25752;SDS011;13600;50.816;4.416;2024-02-26T10:39:14;10.18;;;8.68;;
25752;SDS011;13600;50.816;4.416;2024-02-26T10:41:41;10.10;;;8.73;;
25752;SDS011;13600;50.816;4.416;2024-02-26T10:44:11;10.65;;;8.20;;
25752;SDS011;13600;50.816;4.416;2024-02-26T10:46:38;12.25;;;8.05;;
25752;SDS011;13600;50.816;4.416;2024-02-26T10:49:12;11.98;;;7.45;;
25752;SDS011;13600;50.816;4.416;2024-02-26T10:51:39;9.38;;;8.30;;
25752;SDS011;13600;50.816;4.416;2024-02-26T10:54:08;16.27;;;8.13;;
25752;SDS011;13600;50.816;4.416;2024-02-26T10:56:37;13.93;;;8.27;;
25752;SDS011;13600;50.816;4.416;2024-02-26T10:59:08;9.40;;;7.47;;
25752;SDS011;13600;50.816;4.416;2024-02-26T11:01:35;8.07;;;7.00;;
25752;SDS011;13600;50.816;4.416;2024-02-26T11:04:03;9.63;;;7.50;;
25752;SDS011;13600;50.816;4.416;2024-02-26T11:06:30;8.60;;;6.82;;
25752;SDS011;13600;50.816;4.416;2024-02-26T11:08:59;8.57;;;6.82;;
25752;SDS011;13600;50.816;4.416;2024-02-26T11:11:25;8.95;;;6.75;;
25752;SDS011;13600;50.816;4.416;2024-02-26T11:13:53;9.52;;;7.40;;
25752;SDS011;13600;50.816;4.416;2024-02-26T11:16:22;8.15;;;7.03;;
25752;SDS011;13600;50.816;4.416;2024-02-26T11:18:49;8.07;;;6.35;;
25752;SDS011;13600;50.816;4.416;2024-02-26T11:21:17;7.57;;;6.22;;
25752;SDS011;13600;50.816;4.416;2024-02-26T11:23:52;9.30;;;6.10;;
25752;SDS011;13600;50.816;4.416;2024-02-26T11:26:19;6.82;;;5.70;;
25752;SDS011;13600;50.816;4.416;2024-02-26T11:28:47;6.43;;;4.95;;
25752;SDS011;13600;50.816;4.416;2024-02-26T11:31:14;7.53;;;5.05;;
25752;SDS011;13600;50.816;4.416;2024-02-26T11:33:40;7.13;;;5.40;;
25752;SDS011;13600;50.816;4.416;2024-02-26T11:36:10;5.88;;;4.95;;
25752;SDS011;13600;50.816;4.416;2024-02-26T11:38:37;8.45;;;5.10;;
25752;SDS011;13600;50.816;4.416;2024-02-26T11:41:04;6.95;;;5.20;;
25752;SDS011;13600;50.816;4.416;2024-02-26T11:49:00;7.53;;;4.85;;
25752;SDS011;13600;50.816;4.416;2024-02-26T11:51:27;6.80;;;5.10;;
25752;SDS011;13600;50.816;4.416;2024-02-26T11:53:57;6.50;;;5.03;;
25752;SDS011;13600;50.816;4.416;2024-02-26T11:56:24;6.15;;;4.65;;
25752;SDS011;13600;50.816;4.416;2024-02-26T11:58:56;7.47;;;4.57;;
25752;SDS011;13600;50.816;4.416;2024-02-26T12:01:41;6.15;;;4.57;;
25752;SDS011;13600;50.816;4.416;2024-02-26T12:06:52;7.47;;;5.20;;
25752;SDS011;13600;50.816;4.416;2024-02-26T12:09:38;6.25;;;4.95;;
25752;SDS011;13600;50.816;4.416;2024-02-26T12:12:08;7.10;;;5.15;;
25752;SDS011;13600;50.816;4.416;2024-02-26T12:14:37;6.00;;;4.72;;
25752;SDS011;13600;50.816;4.416;2024-02-26T12:17:20;5.15;;;4.47;;
25752;SDS011;13600;50.816;4.416;2024-02-26T12:19:47;5.85;;;4.85;;
25752;SDS011;13600;50.816;4.416;2024-02-26T12:22:13;7.72;;;4.63;;
25752;SDS011;13600;50.816;4.416;2024-02-26T12:24:43;5.45;;;4.70;;
25752;SDS011;13600;50.816;4.416;2024-02-26T12:27:10;5.38;;;4.60;;
25752;SDS011;13600;50.816;4.416;2024-02-26T12:29:35;5.93;;;4.55;;
25752;SDS011;13600;50.816;4.416;2024-02-26T12:32:01;5.78;;;5.13;;
25752;SDS011;13600;50.816;4.416;2024-02-26T12:34:30;5.93;;;4.80;;
25752;SDS011;13600;50.816;4.416;2024-02-26T12:36:56;6.30;;;5.30;;
25752;SDS011;13600;50.816;4.416;2024-02-26T12:39:22;4.88;;;4.38;;
25752;SDS011;13600;50.816;4.416;2024-02-26T12:41:48;5.28;;;4.47;;
25752;SDS011;13600;50.816;4.416;2024-02-26T12:44:17;7.60;;;4.50;;
25752;SDS011;13600;50.816;4.416;2024-02-26T12:46:43;5.07;;;4.15;;
25752;SDS011;13600;50.816;4.416;2024-02-26T12:49:08;4.50;;;3.17;;
25752;SDS011;13600;50.816;4.416;2024-02-26T12:51:41;5.32;;;3.90;;
25752;SDS011;13600;50.816;4.416;2024-02-26T12:54:08;4.53;;;3.95;;
25752;SDS011;13600;50.816;4.416;2024-02-26T12:56:36;9.57;;;4.20;;
25752;SDS011;13600;50.816;4.416;2024-02-26T12:59:01;4.13;;;3.45;;
25752;SDS011;13600;50.816;4.416;2024-02-26T13:01:28;4.10;;;3.70;;
25752;SDS011;13600;50.816;4.416;2024-02-26T13:03:55;6.68;;;4.00;;
25752;SDS011;13600;50.816;4.416;2024-02-26T13:06:21;4.93;;;3.42;;
25752;SDS011;13600;50.816;4.416;2024-02-26T13:08:47;4.18;;;3.78;;
25752;SDS011;13600;50.816;4.416;2024-02-26T13:11:13;4.13;;;3.70;;
25752;SDS011;13600;50.816;4.416;2024-02-26T13:13:39;4.85;;;4.00;;
25752;SDS011;13600;50.816;4.416;2024-02-26T13:16:05;7.05;;;4.50;;
25752;SDS011;13600;50.816;4.416;2024-02-26T13:18:33;6.75;;;4.78;;
25752;SDS011;13600;50.816;4.416;2024-02-26T13:21:09;5.25;;;4.63;;
25752;SDS011;13600;50.816;4.416;2024-02-26T13:23:35;6.38;;;5.20;;
25752;SDS011;13600;50.816;4.416;2024-02-26T13:26:02;7.20;;;5.13;;
25752;SDS011;13600;50.816;4.416;2024-02-26T13:28:27;6.18;;;5.28;;
25752;SDS011;13600;50.816;4.416;2024-02-26T13:30:53;6.75;;;5.30;;
25752;SDS011;13600;50.816;4.416;2024-02-26T13:33:24;6.82;;;5.10;;
25752;SDS011;13600;50.816;4.416;2024-02-26T13:35:51;7.88;;;5.43;;
25752;SDS011;13600;50.816;4.416;2024-02-26T13:38:17;6.93;;;5.78;;
25752;SDS011;13600;50.816;4.416;2024-02-26T13:40:43;6.57;;;5.60;;
25752;SDS011;13600;50.816;4.416;2024-02-26T13:43:10;7.22;;;5.63;;
25752;SDS011;13600;50.816;4.416;2024-02-26T13:45:37;9.82;;;6.78;;
25752;SDS011;13600;50.816;4.416;2024-02-26T13:48:04;10.43;;;7.80;;
25752;SDS011;13600;50.816;4.416;2024-02-26T13:50:32;9.80;;;7.65;;
25752;SDS011;13600;50.816;4.416;2024-02-26T13:52:58;9.90;;;7.90;;
25752;SDS011;13600;50.816;4.416;2024-02-26T13:55:27;10.77;;;8.32;;
25752;SDS011;13600;50.816;4.416;2024-02-26T13:57:55;14.30;;;8.52;;
25752;SDS011;13600;50.816;4.416;2024-02-26T14:00:22;13.82;;;9.63;;
25752;SDS011;13600;50.816;4.416;2024-02-26T14:02:49;11.30;;;8.77;;
25752;SDS011;13600;50.816;4.416;2024-02-26T14:05:15;10.68;;;8.95;;
25752;SDS011;13600;50.816;4.416;2024-02-26T14:07:41;11.38;;;9.23;;
25752;SDS011;13600;50.816;4.416;2024-02-26T14:10:08;11.23;;;9.27;;
25752;SDS011;13600;50.816;4.416;2024-02-26T14:12:36;13.05;;;9.48;;
25752;SDS011;13600;50.816;4.416;2024-02-26T14:15:04;12.95;;;9.75;;
25752;SDS011;13600;50.816;4.416;2024-02-26T14:17:33;13.80;;;9.38;;
25752;SDS011;13600;50.816;4.416;2024-02-26T14:19:59;12.75;;;9.52;;
25752;SDS011;13600;50.816;4.416;2024-02-26T14:22:25;10.90;;;8.82;;
25752;SDS011;13600;50.816;4.416;2024-02-26T14:24:55;11.55;;;9.05;;
25752;SDS011;13600;50.816;4.416;2024-02-26T14:27:21;11.93;;;9.38;;
25752;SDS011;13600;50.816;4.416;2024-02-26T14:29:48;12.27;;;9.18;;
25752;SDS011;13600;50.816;4.416;2024-02-26T14:32:14;14.45;;;10.35;;
25752;SDS011;13600;50.816;4.416;2024-02-26T14:34:40;13.68;;;10.27;;
25752;SDS011;13600;50.816;4.416;2024-02-26T14:37:06;14.15;;;9.95;;
25752;SDS011;13600;50.816;4.416;2024-02-26T14:39:32;13.77;;;9.68;;
25752;SDS011;13600;50.816;4.416;2024-02-26T14:41:58;14.07;;;10.05;;
25752;SDS011;13600;50.816;4.416;2024-02-26T14:44:24;16.38;;;11.50;;